Time;durP1;ratioP1;P1;durP2;ratioP2;P2;SDS_P1;SDS_P2;PMS_P1;PMS_P2;Temp;Humidity;BMP_temperature;BMP_pressure;BME280_temperature;BME280_humidity;BME280_pressure;Samples;Min_cycle;Max_cycle;Signal;HPM_P1;HPM_P2
2022/03/17 00:01:12;;;;;;;46.95;30.23;;;;;;;6.16;100.00;96993.81;5047921;28;20073;-48
2022/03/17 00:03:40;;;;;;;49.45;32.95;;;;;;;6.06;100.00;96990.97;5047837;28;20099;-45
2022/03/17 00:06:11;;;;;;;51.00;33.28;;;;;;;5.89;100.00;96989.47;5051162;28;20060;-50
2022/03/17 00:08:40;;;;;;;51.65;33.05;;;;;;;6.03;100.00;96992.97;5047902;28;20096;-48
2022/03/17 00:11:08;;;;;;;49.92;33.33;;;;;;;6.16;100.00;96996.44;5044261;28;20045;-47
2022/03/17 00:13:36;;;;;;;44.00;27.73;;;;;;;5.89;100.00;96989.47;5047876;28;20079;-48
2022/03/17 00:16:06;;;;;;;49.50;31.20;;;;;;;5.92;100.00;96993.66;5047717;28;20075;-48
2022/03/17 00:18:34;;;;;;;50.05;32.55;;;;;;;6.04;100.00;96992.03;5047588;28;20069;-47
2022/03/17 00:21:04;;;;;;;50.05;31.77;;;;;;;5.83;100.00;96989.88;5047717;28;20084;-46
2022/03/17 00:23:32;;;;;;;51.35;31.90;;;;;;;5.94;100.00;96986.56;5048341;28;20092;-49
2022/03/17 00:26:00;;;;;;;47.92;29.65;;;;;;;5.85;100.00;96994.97;5047934;28;20061;-47
2022/03/17 00:28:29;;;;;;;48.33;29.63;;;;;;;5.97;100.00;96986.34;5046365;28;20068;-48
2022/03/17 00:31:01;;;;;;;49.33;31.60;;;;;;;5.90;100.00;96985.91;5047382;28;20073;-50
2022/03/17 00:33:31;;;;;;;49.28;31.30;;;;;;;6.03;100.00;96985.13;5047602;28;20815;-47
2022/03/17 00:35:59;;;;;;;48.45;30.75;;;;;;;5.93;100.00;96980.50;5050581;28;20076;-48
2022/03/17 00:38:27;;;;;;;49.50;30.52;;;;;;;6.02;100.00;96986.03;5052813;28;20076;-49
2022/03/17 00:40:56;;;;;;;50.58;33.05;;;;;;;5.96;100.00;96986.47;5051359;28;20076;-47
2022/03/17 00:43:24;;;;;;;47.55;30.67;;;;;;;5.88;100.00;96992.16;5051486;28;20068;-48
2022/03/17 00:45:52;;;;;;;52.22;34.80;;;;;;;6.02;100.00;96984.28;5051143;28;20447;-46
2022/03/17 00:48:21;;;;;;;53.72;33.83;;;;;;;5.99;100.00;96984.47;5050800;28;20443;-44
2022/03/17 00:50:50;;;;;;;47.05;30.55;;;;;;;5.89;100.00;96986.00;5050766;28;20076;-45
2022/03/17 00:53:18;;;;;;;51.58;32.85;;;;;;;6.04;100.00;96997.25;5054526;28;20076;-51
2022/03/17 00:55:47;;;;;;;50.38;32.28;;;;;;;6.28;100.00;96990.34;5053222;28;20068;-45
2022/03/17 00:58:15;;;;;;;49.30;32.40;;;;;;;6.10;100.00;96999.47;5050783;28;20557;-48
2022/03/17 01:00:43;;;;;;;47.67;30.67;;;;;;;6.07;100.00;97002.28;5050731;28;20064;-45
2022/03/17 01:03:11;;;;;;;48.45;30.23;;;;;;;6.07;100.00;96999.66;5050968;28;20163;-51
2022/03/17 01:05:41;;;;;;;48.97;31.95;;;;;;;5.91;100.00;96990.19;5050735;28;20077;-44
2022/03/17 01:08:11;;;;;;;49.65;31.85;;;;;;;5.96;100.00;96986.47;5031664;28;20443;-49
2022/03/17 01:10:42;;;;;;;48.37;30.57;;;;;;;5.90;100.00;96985.06;5046225;28;20597;-52
2022/03/17 01:13:11;;;;;;;48.63;30.90;;;;;;;5.92;100.00;96988.44;5050127;28;20486;-50
2022/03/17 01:15:39;;;;;;;45.90;30.98;;;;;;;5.86;100.00;96981.81;5050656;28;20068;-49
2022/03/17 01:18:07;;;;;;;50.75;31.40;;;;;;;5.80;100.00;96984.00;5050225;28;20057;-49
2022/03/17 01:20:35;;;;;;;50.55;31.70;;;;;;;5.97;100.00;96983.75;5050514;28;20093;-53
2022/03/17 01:23:05;;;;;;;48.15;31.23;;;;;;;5.74;100.00;96980.00;5047998;28;20451;-47
2022/03/17 01:25:34;;;;;;;49.28;31.63;;;;;;;5.75;100.00;96976.47;5049742;28;20061;-47
2022/03/17 01:28:04;;;;;;;52.25;31.38;;;;;;;5.67;100.00;96976.94;5050496;28;20037;-48
2022/03/17 01:30:35;;;;;;;50.25;31.80;;;;;;;5.69;100.00;96974.25;5049037;28;20072;-49
2022/03/17 01:33:03;;;;;;;46.58;30.73;;;;;;;5.68;100.00;96967.34;5044843;28;20069;-47
2022/03/17 01:35:31;;;;;;;47.78;31.60;;;;;;;5.64;100.00;96960.63;5050664;28;20519;-45
2022/03/17 01:38:00;;;;;;;48.05;30.73;;;;;;;5.78;100.00;96959.69;5054574;28;20573;-49
2022/03/17 01:40:28;;;;;;;47.05;29.75;;;;;;;5.70;100.00;96966.28;5049836;28;20076;-48
2022/03/17 01:42:58;;;;;;;45.58;30.77;;;;;;;5.75;100.00;96960.75;5050227;28;20048;-48
2022/03/17 01:45:26;;;;;;;46.65;30.55;;;;;;;5.71;100.00;96954.91;5050118;28;20470;-46
2022/03/17 01:47:54;;;;;;;47.47;30.05;;;;;;;5.69;100.00;96954.16;5049128;28;20117;-48
2022/03/17 01:50:23;;;;;;;48.00;31.25;;;;;;;5.68;100.00;96959.50;5050552;28;20545;-44
2022/03/17 01:52:51;;;;;;;46.95;30.48;;;;;;;5.81;100.00;96952.47;5049310;28;20535;-46
2022/03/17 01:55:21;;;;;;;45.83;29.63;;;;;;;5.88;100.00;96955.53;5044858;28;20068;-45
2022/03/17 01:57:50;;;;;;;44.22;29.13;;;;;;;5.69;100.00;96951.53;5049582;28;20502;-55
2022/03/17 02:00:21;;;;;;;47.47;30.08;;;;;;;5.77;100.00;96945.78;5064459;28;20458;-51
2022/03/17 02:02:52;;;;;;;45.40;29.85;;;;;;;5.74;100.00;96953.84;5061418;28;20072;-53
2022/03/17 02:05:20;;;;;;;44.20;28.70;;;;;;;5.57;100.00;96948.88;5047715;28;20061;-50
2022/03/17 02:07:50;;;;;;;49.15;29.77;;;;;;;5.44;100.00;96949.72;5050907;28;20041;-45
2022/03/17 02:10:18;;;;;;;44.35;27.88;;;;;;;5.40;100.00;96937.78;5046450;28;20076;-47
2022/03/17 02:15:34;;;;;;;46.00;29.15;;;;;;;5.42;100.00;96945.50;5048697;28;20083;-46
2022/03/17 02:18:06;;;;;;;54.95;35.38;;;;;;;5.15;100.00;96945.53;5049349;28;20056;-47
2022/03/17 02:20:35;;;;;;;48.83;31.48;;;;;;;5.36;100.00;96938.91;5049644;28;20081;-48
2022/03/17 02:25:56;;;;;;;49.10;31.85;;;;;;;5.23;100.00;96928.41;5049406;28;20076;-52
2022/03/17 02:28:24;;;;;;;48.65;31.67;;;;;;;5.25;100.00;96930.91;5048990;28;20060;-51
2022/03/17 02:30:53;;;;;;;51.17;32.75;;;;;;;5.39;100.00;96925.63;5049110;28;20083;-47
2022/03/17 02:33:21;;;;;;;49.50;31.70;;;;;;;5.30;100.00;96922.75;5048959;28;20477;-49
2022/03/17 02:35:51;;;;;;;49.53;31.13;;;;;;;5.19;100.00;96929.53;5050178;28;20107;-49
2022/03/17 02:38:22;;;;;;;49.58;31.67;;;;;;;5.10;100.00;96932.78;5051442;28;20088;-49
2022/03/17 02:40:52;;;;;;;;;;;;;;;5.21;100.00;96940.75;5049287;28;20080;-47
2022/03/17 02:43:21;;;;;;;52.97;33.40;;;;;;;5.03;100.00;96933.28;5048793;28;20020;-49
2022/03/17 02:45:50;;;;;;;55.15;34.65;;;;;;;5.19;100.00;96926.91;5049348;28;20065;-51
2022/03/17 02:48:18;;;;;;;53.33;35.15;;;;;;;5.23;100.00;96930.19;5048385;28;20076;-52
2022/03/17 02:50:47;;;;;;;49.38;32.42;;;;;;;5.15;100.00;96935.91;5048756;28;20103;-46
2022/03/17 02:53:16;;;;;;;52.50;34.05;;;;;;;5.15;100.00;96938.53;5050874;28;20060;-49
2022/03/17 02:55:47;;;;;;;53.60;33.45;;;;;;;5.29;100.00;96935.00;5048928;28;20522;-49
2022/03/17 02:58:15;;;;;;;55.28;31.80;;;;;;;5.10;100.00;96932.78;5048327;28;20077;-56
2022/03/17 03:00:43;;;;;;;53.30;33.70;;;;;;;5.11;100.00;96929.22;5048025;28;20614;-51
2022/03/17 03:03:16;;;;;;;52.88;33.65;;;;;;;5.12;100.00;96935.28;5048831;28;20069;-51
2022/03/17 03:05:45;;;;;;;52.20;34.33;;;;;;;5.10;100.00;96937.16;5043110;28;20439;-45
2022/03/17 03:08:14;;;;;;;54.38;35.13;;;;;;;5.13;100.00;96942.19;5045555;28;20080;-52
2022/03/17 03:10:44;;;;;;;53.15;34.92;;;;;;;5.22;100.00;96938.97;5042263;28;20064;-47
2022/03/17 03:13:13;;;;;;;54.40;33.95;;;;;;;5.14;100.00;96936.84;5048414;28;20064;-45
2022/03/17 03:15:42;;;;;;;54.33;33.67;;;;;;;5.32;100.00;96937.44;5048923;28;20041;-45
2022/03/17 03:18:11;;;;;;;54.72;33.80;;;;;;;5.33;100.00;96928.63;5048521;28;20068;-50
2022/03/17 03:20:39;;;;;;;56.05;34.65;;;;;;;5.48;100.00;96926.81;5048460;28;20111;-47
2022/03/17 03:23:07;;;;;;;52.70;33.47;;;;;;;5.42;100.00;96929.81;5048765;28;20065;-47
2022/03/17 03:25:36;;;;;;;53.05;34.95;;;;;;;5.47;100.00;96935.56;5048354;28;20072;-51
2022/03/17 03:28:07;;;;;;;52.35;33.28;;;;;;;5.55;100.00;96935.91;5048286;28;20119;-46
2022/03/17 03:30:37;;;;;;;56.30;35.50;;;;;;;5.54;100.00;96938.63;5048019;28;20068;-51
2022/03/17 03:33:07;;;;;;;59.58;34.60;;;;;;;5.67;100.00;96942.94;5048517;28;20668;-44
2022/03/17 03:38:22;;;;;;;53.20;33.38;;;;;;;5.21;100.00;96945.13;5047224;28;20309;-46
2022/03/17 03:40:50;;;;;;;50.50;29.67;;;;;;;5.08;100.00;96939.03;5047777;28;20072;-48
2022/03/17 03:43:19;;;;;;;51.90;32.33;;;;;;;5.08;100.00;96936.41;5047873;28;20064;-45
2022/03/17 03:45:50;;;;;;;59.47;36.40;;;;;;;5.19;100.00;96934.75;5048356;28;20072;-48
2022/03/17 03:48:18;;;;;;;61.92;37.95;;;;;;;5.24;100.00;96943.16;5048004;28;20064;-51
2022/03/17 03:50:47;;;;;;;59.08;36.78;;;;;;;5.20;100.00;96959.16;5048188;28;20095;-49
2022/03/17 03:53:15;;;;;;;57.85;36.92;;;;;;;5.50;100.00;96969.38;5051302;28;20438;-48
2022/03/17 03:55:43;;;;;;;57.35;35.13;;;;;;;5.38;100.00;96971.03;5045081;28;20689;-46
2022/03/17 03:58:12;;;;;;;58.70;38.63;;;;;;;5.20;100.00;96975.69;5047883;28;20460;-47
2022/03/17 04:00:41;;;;;;;54.95;35.00;;;;;;;5.31;100.00;96979.38;5045871;28;20064;-44
2022/03/17 04:03:11;;;;;;;57.50;34.17;;;;;;;5.29;100.00;96969.00;5047518;28;20080;-48
2022/03/17 04:05:39;;;;;;;53.53;34.30;;;;;;;5.23;100.00;96964.19;5045267;28;20080;-51
2022/03/17 04:08:09;;;;;;;56.80;34.55;;;;;;;5.27;100.00;96967.44;5023596;28;20058;-48
2022/03/17 04:10:37;;;;;;;58.65;35.63;;;;;;;5.39;100.00;96970.09;5041269;28;20071;-49
2022/03/17 04:13:05;;;;;;;52.30;32.15;;;;;;;5.28;100.00;96969.94;5051506;28;20455;-44
2022/03/17 04:15:34;;;;;;;57.42;33.67;;;;;;;5.21;100.00;96964.28;5051691;28;20115;-47
2022/03/17 04:18:02;;;;;;;56.95;34.05;;;;;;;5.19;100.00;96971.38;5051490;28;20069;-49
2022/03/17 04:20:32;;;;;;;60.13;37.13;;;;;;;5.29;100.00;96976.84;5048160;28;20080;-51
2022/03/17 04:23:01;;;;;;;59.85;37.22;;;;;;;5.34;100.00;96968.72;5056848;28;20056;-46
2022/03/17 04:25:29;;;;;;;59.88;40.20;;;;;;;5.38;100.00;96970.19;5051555;28;20064;-45
2022/03/17 04:27:57;;;;;;;56.70;37.80;;;;;;;5.31;100.00;96964.53;5051025;28;20036;-46
2022/03/17 04:30:26;;;;;;;61.05;37.90;;;;;;;5.35;100.00;96970.38;5051097;28;20091;-45
2022/03/17 04:32:54;;;;;;;61.47;37.88;;;;;;;5.30;100.00;96970.69;5051363;28;20092;-48
2022/03/17 04:35:23;;;;;;;58.42;37.63;;;;;;;5.25;100.00;96964.91;5051963;28;20087;-46
2022/03/17 04:37:52;;;;;;;61.63;38.30;;;;;;;5.23;100.00;96975.50;5054412;28;20041;-46
2022/03/17 04:40:21;;;;;;;60.10;35.13;;;;;;;5.55;100.00;96980.41;5050923;28;20076;-45
2022/03/17 04:42:49;;;;;;;59.20;37.03;;;;;;;5.55;100.00;96982.19;5051506;28;20072;-44
2022/03/17 04:45:17;;;;;;;59.85;36.85;;;;;;;5.35;100.00;96978.25;5050879;28;20076;-48
2022/03/17 04:47:46;;;;;;;59.00;36.35;;;;;;;5.42;100.00;96982.13;5051301;28;20088;-45
2022/03/17 04:50:14;;;;;;;61.15;37.85;;;;;;;5.64;100.00;96995.50;5049843;28;20080;-46
2022/03/17 04:55:29;;;;;;;62.10;36.80;;;;;;;5.38;100.00;96999.78;5036223;28;20484;-47
2022/03/17 04:57:58;;;;;;;59.30;37.28;;;;;;;5.34;100.00;96993.09;5041397;28;20444;-46
2022/03/17 05:00:26;;;;;;;63.67;36.90;;;;;;;5.29;100.00;96992.53;5050455;28;20084;-45
2022/03/17 05:02:55;;;;;;;62.10;37.72;;;;;;;5.35;100.00;96999.16;5050239;28;20123;-46
2022/03/17 05:05:28;;;;;;;62.60;37.50;;;;;;;5.25;100.00;96996.28;5050692;28;20527;-51
2022/03/17 05:07:57;;;;;;;60.05;37.22;;;;;;;5.08;100.00;97001.75;5055694;28;20691;-48
2022/03/17 05:10:28;;;;;;;61.55;36.60;;;;;;;5.01;100.00;96993.47;5050090;28;20492;-48
2022/03/17 05:13:04;;;;;;;57.90;34.75;;;;;;;4.93;100.00;96991.34;5045079;28;20071;-45
2022/03/17 05:15:33;;;;;;;61.88;37.28;;;;;;;5.13;100.00;97010.16;5050783;28;20068;-45
2022/03/17 05:18:02;;;;;;;65.13;39.80;;;;;;;5.16;100.00;97007.31;5050481;28;20552;-52
2022/03/17 05:20:30;;;;;;;67.35;37.90;;;;;;;5.02;100.00;97010.81;5050612;28;20091;-46
2022/03/17 05:22:58;;;;;;;60.95;35.22;;;;;;;5.09;100.00;97012.09;5050349;28;20060;-50
2022/03/17 05:25:26;;;;;;;61.95;37.40;;;;;;;5.15;100.00;97011.72;5050826;28;20065;-48
2022/03/17 05:27:55;;;;;;;65.43;38.28;;;;;;;5.09;100.00;97006.88;5050733;28;20083;-51
2022/03/17 05:30:25;;;;;;;65.50;38.92;;;;;;;5.06;100.00;97001.00;5050127;28;20065;-51
2022/03/17 05:32:53;;;;;;;63.78;38.60;;;;;;;5.11;100.00;97014.63;5050279;28;20088;-48
2022/03/17 05:35:22;;;;;;;61.03;36.05;;;;;;;5.14;100.00;97012.66;5050559;28;20091;-47
2022/03/17 05:37:51;;;;;;;63.17;38.05;;;;;;;5.20;100.00;97006.22;5052522;28;20069;-50
2022/03/17 05:40:19;;;;;;;66.82;38.45;;;;;;;5.20;100.00;97011.44;5049557;28;20065;-50
2022/03/17 05:42:49;;;;;;;61.78;38.47;;;;;;;5.16;100.00;97012.56;5050141;28;20079;-47
2022/03/17 05:45:18;;;;;;;64.43;38.20;;;;;;;5.26;100.00;97018.03;5049738;28;20060;-48
2022/03/17 05:47:49;;;;;;;67.32;40.70;;;;;;;5.31;100.00;97035.13;5047842;28;20092;-46
2022/03/17 05:50:20;;;;;;;64.60;39.65;;;;;;;5.31;100.00;97032.50;5049850;28;20076;-48
2022/03/17 05:52:49;;;;;;;62.15;38.40;;;;;;;5.40;100.00;97031.94;5049545;28;20094;-50
2022/03/17 05:55:18;;;;;;;64.72;39.45;;;;;;;5.49;100.00;97035.72;5049282;28;20076;-49
2022/03/17 05:57:48;;;;;;;64.28;39.30;;;;;;;5.52;100.00;97037.31;5049918;28;20072;-49
2022/03/17 06:00:17;;;;;;;66.40;39.67;;;;;;;5.56;100.00;97036.16;5047232;28;20072;-51
2022/03/17 06:02:47;;;;;;;65.30;39.15;;;;;;;5.62;100.00;97044.47;5049820;28;20535;-45
2022/03/17 06:05:15;;;;;;;63.17;38.63;;;;;;;5.59;100.00;97051.66;5049666;28;20080;-45
2022/03/17 06:07:45;;;;;;;68.05;40.75;;;;;;;5.64;100.00;97047.81;5054184;28;20486;-45
2022/03/17 06:10:15;;;;;;;68.10;40.22;;;;;;;5.82;100.00;97042.31;5049123;28;20546;-48
2022/03/17 06:12:44;;;;;;;66.45;39.08;;;;;;;5.61;100.00;97045.41;5049649;28;20061;-48
2022/03/17 06:15:14;;;;;;;68.53;40.67;;;;;;;5.60;100.00;97045.47;5049830;28;20067;-44
2022/03/17 06:17:43;;;;;;;65.47;38.60;;;;;;;5.59;100.00;97047.25;5050214;28;20543;-48
2022/03/17 06:20:15;;;;;;;67.73;42.53;;;;;;;5.46;100.00;97049.00;5048645;28;20067;-49
2022/03/17 06:22:44;;;;;;;64.60;39.60;;;;;;;5.49;100.00;97051.41;5048693;28;20065;-46
2022/03/17 06:25:14;;;;;;;63.75;39.85;;;;;;;5.66;100.00;97052.94;5030865;28;20430;-45
2022/03/17 06:27:43;;;;;;;67.10;43.20;;;;;;;5.81;100.00;97051.94;5028971;28;20061;-45
2022/03/17 06:30:13;;;;;;;64.13;40.65;;;;;;;5.89;100.00;97052.28;5028764;28;20069;-45
2022/03/17 06:32:42;;;;;;;66.68;39.90;;;;;;;6.24;100.00;97053.53;5029853;28;20147;-46
2022/03/17 06:35:15;;;;;;;63.03;38.97;;;;;;;6.02;100.00;97054.09;5028204;28;20549;-51
2022/03/17 06:37:43;;;;;;;61.25;38.67;;;;;;;6.39;100.00;97061.16;5028915;28;20069;-47
2022/03/17 06:40:12;;;;;;;67.75;39.83;;;;;;;6.60;100.00;97052.78;5028522;28;20522;-46
2022/03/17 06:42:41;;;;;;;64.20;38.30;;;;;;;6.35;100.00;97064.94;5028347;28;20072;-45
2022/03/17 06:45:09;;;;;;;64.00;39.45;;;;;;;6.73;100.00;97066.72;5024923;28;20770;-50
2022/03/17 06:47:38;;;;;;;61.65;38.38;;;;;;;6.68;100.00;97076.72;5029234;28;20096;-49
2022/03/17 06:50:08;;;;;;;60.47;39.65;;;;;;;6.56;100.00;97074.91;5028339;28;20057;-50
2022/03/17 06:52:38;;;;;;;60.92;37.63;;;;;;;6.72;100.00;97074.72;5028847;28;20115;-46
2022/03/17 06:55:07;;;;;;;63.00;38.30;;;;;;;6.85;100.00;97073.75;5030402;28;20076;-47
2022/03/17 06:57:35;;;;;;;57.03;37.10;;;;;;;7.07;100.00;97080.97;5028879;28;20471;-46
2022/03/17 07:00:05;;;;;;;61.90;39.15;;;;;;;7.38;100.00;97079.63;5027092;28;20072;-51
2022/03/17 07:02:33;;;;;;;59.92;37.15;;;;;;;7.16;100.00;97083.88;5029341;28;20112;-45
2022/03/17 07:05:02;;;;;;;61.67;38.63;;;;;;;7.45;100.00;97085.28;5028683;28;20064;-48
2022/03/17 07:07:30;;;;;;;55.58;35.85;;;;;;;7.57;100.00;97086.16;5043541;28;20073;-52
2022/03/17 07:10:00;;;;;;;60.22;38.90;;;;;;;7.52;100.00;97083.06;5048132;28;20065;-49
2022/03/17 07:12:28;;;;;;;54.60;36.58;;;;;;;7.58;100.00;97086.06;5048998;28;20064;-46
2022/03/17 07:14:56;;;;;;;57.70;38.35;;;;;;;7.75;100.00;97084.03;5048391;28;20076;-49
2022/03/17 07:17:26;;;;;;;57.20;36.65;;;;;;;8.24;100.00;97090.91;5049380;28;20080;-51
2022/03/17 07:20:00;;;;;;;56.65;38.65;;;;;;;7.72;100.00;97092.94;5048457;28;20068;-48
2022/03/17 07:22:29;;;;;;;58.08;38.63;;;;;;;8.13;100.00;97089.06;5047557;28;20069;-48
2022/03/17 07:24:57;;;;;;;56.00;38.17;;;;;;;8.22;100.00;97092.78;5048654;28;20271;-48
2022/03/17 07:27:27;;;;;;;57.90;38.20;;;;;;;8.18;100.00;97104.47;5047945;28;20068;-45
2022/03/17 07:29:55;;;;;;;59.67;38.47;;;;;;;8.13;100.00;97094.31;5048367;28;20072;-49
2022/03/17 07:32:24;;;;;;;56.78;39.65;;;;;;;8.32;100.00;97099.88;5048803;28;20084;-47
2022/03/17 07:34:52;;;;;;;59.65;37.85;;;;;;;8.12;100.00;97107.56;5048640;28;20064;-51
2022/03/17 07:37:21;;;;;;;57.85;39.25;;;;;;;7.93;100.00;97102.84;5047659;28;20103;-46
2022/03/17 07:39:49;;;;;;;58.03;38.22;;;;;;;8.45;100.00;97096.38;5045579;28;20507;-47
2022/03/17 07:42:18;;;;;;;56.95;36.53;;;;;;;8.58;100.00;97096.28;5048515;28;20064;-47
2022/03/17 07:44:47;;;;;;;59.72;39.40;;;;;;;8.56;100.00;97104.28;5041775;28;20068;-46
2022/03/17 07:47:16;;;;;;;58.83;38.27;;;;;;;8.15;100.00;97115.22;5049004;28;20080;-49
2022/03/17 07:49:44;;;;;;;55.85;40.15;;;;;;;8.47;100.00;97103.19;5046212;28;20060;-53
2022/03/17 07:52:13;;;;;;;56.42;37.70;;;;;;;8.25;100.00;97117.03;5049788;28;20064;-47
2022/03/17 07:54:41;;;;;;;58.30;36.92;;;;;;;8.26;100.00;97121.38;5048469;28;20065;-48
2022/03/17 07:57:10;;;;;;;54.63;38.83;;;;;;;8.03;100.00;97116.97;5050489;28;20129;-48
2022/03/17 07:59:38;;;;;;;55.63;37.60;;;;;;;8.19;100.00;97128.03;5052321;28;20083;-46
2022/03/17 08:02:08;;;;;;;55.40;36.85;;;;;;;8.22;100.00;97130.41;5052348;28;20088;-46
2022/03/17 08:04:37;;;;;;;55.08;36.08;;;;;;;8.43;100.00;97127.16;5051922;28;20072;-45
2022/03/17 08:07:05;;;;;;;59.13;40.13;;;;;;;8.19;100.00;97122.78;5055710;28;20088;-46
2022/03/17 08:09:33;;;;;;;53.80;38.30;;;;;;;8.30;100.00;97120.19;5051628;28;20060;-46
2022/03/17 08:12:01;;;;;;;57.15;38.05;;;;;;;8.46;100.00;97129.56;5051885;28;20087;-46
2022/03/17 08:14:30;;;;;;;55.65;37.22;;;;;;;8.63;100.00;97129.13;5052433;28;20091;-46
2022/03/17 08:16:58;;;;;;;57.50;40.63;;;;;;;8.23;100.00;97132.09;5051967;28;20064;-49
2022/03/17 08:19:28;;;;;;;59.13;37.90;;;;;;;8.56;100.00;97120.88;5051476;28;20074;-48
2022/03/17 08:21:57;;;;;;;53.38;34.80;;;;;;;8.47;100.00;97131.28;5051533;28;20091;-50
2022/03/17 08:24:25;;;;;;;55.78;38.78;;;;;;;8.88;100.00;97133.38;5052060;28;20064;-46
2022/03/17 08:26:55;;;;;;;60.35;40.65;;;;;;;8.39;100.00;97136.25;5052034;28;20069;-46
2022/03/17 08:29:23;;;;;;;56.03;35.20;;;;;;;8.78;100.00;97140.31;5052569;28;20084;-49
2022/03/17 08:31:52;;;;;;;50.17;33.80;;;;;;;8.45;100.00;97146.31;5050630;28;20060;-48
2022/03/17 08:34:20;;;;;;;57.03;39.90;;;;;;;8.91;100.00;97140.19;5049613;28;20500;-46
2022/03/17 08:36:53;;;;;;;54.78;38.25;;;;;;;8.72;100.00;97146.84;5040976;28;20119;-46
2022/03/17 08:39:21;;;;;;;53.97;36.28;;;;;;;8.77;100.00;97147.38;5032304;28;20060;-46
2022/03/17 08:41:51;;;;;;;56.17;39.47;;;;;;;9.15;100.00;97138.31;5030803;28;20084;-52
2022/03/17 08:44:20;;;;;;;56.35;39.42;;;;;;;9.17;100.00;97151.34;5050050;28;20092;-51
2022/03/17 08:49:35;;;;;;;53.90;36.65;;;;;;;8.69;100.00;97154.13;5049939;28;20077;-50
2022/03/17 08:52:07;;;;;;;52.58;35.40;;;;;;;9.13;100.00;97156.00;5049824;28;20519;-46
2022/03/17 08:54:35;;;;;;;53.80;36.58;;;;;;;9.05;100.00;97161.03;5050104;28;20073;-45
2022/03/17 08:57:04;;;;;;;52.92;38.20;;;;;;;8.94;100.00;97158.38;5049238;28;20531;-51
2022/03/17 08:59:34;;;;;;;55.03;37.70;;;;;;;9.44;100.00;97153.63;5049845;28;20091;-50
2022/03/17 09:02:05;;;;;;;56.58;38.90;;;;;;;9.49;100.00;97154.09;5049590;28;20065;-50
2022/03/17 09:04:34;;;;;;;56.35;38.70;;;;;;;9.27;100.00;97155.78;5049940;28;20061;-49
2022/03/17 09:07:03;;;;;;;51.38;35.72;;;;;;;9.26;100.00;97164.63;5052928;28;20071;-45
2022/03/17 09:09:33;;;;;;;52.88;36.42;;;;;;;9.81;100.00;97166.53;5064829;28;20068;-50
2022/03/17 09:12:05;;;;;;;;;;;;;;;9.86;100.00;97165.19;5050445;28;20110;-46
2022/03/17 09:14:36;;;;;;;53.67;34.88;;;;;;;10.27;100.00;97160.19;5050153;28;19963;-49
2022/03/17 09:17:05;;;;;;;53.50;35.45;;;;;;;10.20;100.00;97170.38;5045991;28;20065;-49
2022/03/17 09:19:33;;;;;;;48.75;33.47;;;;;;;10.04;100.00;97176.03;5048728;28;20400;-48
2022/03/17 09:22:01;;;;;;;53.08;36.30;;;;;;;10.74;100.00;97176.53;5049139;28;20071;-45
2022/03/17 09:24:30;;;;;;;50.97;36.38;;;;;;;10.07;100.00;97181.06;5050110;28;20076;-46
2022/03/17 09:27:00;;;;;;;53.13;35.60;;;;;;;10.36;100.00;97183.19;5049268;28;20096;-51
2022/03/17 09:29:29;;;;;;;50.65;36.95;;;;;;;10.09;100.00;97192.31;5049428;28;20092;-48
2022/03/17 09:32:00;;;;;;;50.60;35.60;;;;;;;10.57;100.00;97184.03;5047951;28;20067;-46
2022/03/17 09:34:31;;;;;;;52.15;37.00;;;;;;;10.64;100.00;97187.84;5048902;28;20613;-52
2022/03/17 09:36:59;;;;;;;;;;;;;;;10.10;100.00;97196.63;5050824;28;20061;-48
2022/03/17 09:39:46;;;;;;;50.75;36.55;;;;;;;10.21;100.00;97182.56;5010872;28;1087650;-47
2022/03/17 09:42:17;;;;;;;47.97;34.53;;;;;;;11.06;100.00;97177.31;5044393;28;20287;-46
2022/03/17 09:44:47;;;;;;;50.33;36.53;;;;;;;11.57;100.00;97171.16;5049875;28;20083;-46
2022/03/17 09:47:19;;;;;;;56.03;35.80;;;;;;;11.46;100.00;97170.41;5050552;28;20077;-52
2022/03/17 09:49:47;;;;;;;52.20;37.15;;;;;;;10.95;100.00;97177.38;5049829;28;20442;-49
2022/03/17 09:52:17;;;;;;;69.80;49.28;;;;;;;10.55;100.00;97179.84;5049502;28;20519;-53
2022/03/17 09:54:46;;;;;;;68.03;46.80;;;;;;;11.03;100.00;97168.81;5056400;28;20052;-47
2022/03/17 09:57:17;;;;;;;123.65;73.50;;;;;;;10.73;100.00;97182.75;5049497;28;20444;-50
2022/03/17 09:59:45;;;;;;;56.28;36.63;;;;;;;10.51;100.00;97181.91;5049647;28;20064;-46
2022/03/17 10:02:16;;;;;;;47.17;35.03;;;;;;;11.40;100.00;97185.81;5050261;28;20064;-47
2022/03/17 10:04:45;;;;;;;48.60;33.97;;;;;;;11.58;100.00;97182.56;5049799;28;20068;-50
2022/03/17 10:07:15;;;;;;;48.65;34.63;;;;;;;11.90;100.00;97186.88;5051618;28;20064;-46
2022/03/17 10:09:44;;;;;;;49.13;34.55;;;;;;;11.43;100.00;97181.25;5046114;28;20041;-46
2022/03/17 10:12:14;;;;;;;49.85;33.65;;;;;;;11.12;100.00;97192.63;5049556;28;20061;-46
2022/03/17 10:14:45;;;;;;;47.67;34.13;;;;;;;11.90;100.00;97187.69;5050102;28;20088;-46
2022/03/17 10:17:31;;;;;;;53.83;39.55;;;;;;;11.61;100.00;97190.22;5049108;28;21470;-48
2022/03/17 10:20:16;;;;;;;48.17;34.60;;;;;;;11.38;100.00;97194.84;5047836;28;20072;-50
2022/03/17 10:22:46;;;;;;;46.75;34.35;;;;;;;11.29;100.00;97199.13;5047394;28;20069;-47
2022/03/17 10:25:15;;;;;;;;;;;;;;;11.71;100.00;97188.44;5050223;28;20069;-51
2022/03/17 10:27:45;;;;;;;45.72;33.40;;;;;;;12.43;100.00;97191.84;5047781;28;19991;-46
2022/03/17 10:30:15;;;;;;;46.75;34.03;;;;;;;12.10;100.00;97192.06;5046252;28;20545;-46
2022/03/17 10:32:55;;;;;;;49.38;35.58;;;;;;;12.19;100.00;97195.72;5046836;28;20435;-46
2022/03/17 10:35:28;;;;;;;50.57;35.30;;;;;;;12.05;100.00;97199.56;5049273;28;20081;-48
2022/03/17 10:37:57;;;;;;;52.47;35.55;;;;;;;12.23;100.00;97197.09;5048821;28;21056;-48
2022/03/17 10:40:31;;;;;;;48.78;34.80;;;;;;;12.21;100.00;97203.50;5046899;28;20455;-47
2022/03/17 10:43:18;;;;;;;46.97;34.30;;;;;;;12.16;100.00;97197.78;5043148;28;20060;-47
2022/03/17 10:45:48;;;;;;;46.40;35.33;;;;;;;11.96;100.00;97203.03;5046517;28;20068;-45
2022/03/17 10:48:16;;;;;;;48.63;35.40;;;;;;;12.14;100.00;97197.91;5048473;28;20148;-49
2022/03/17 10:50:45;;;;;;;47.58;33.45;;;;;;;11.85;100.00;97189.91;5049087;28;20080;-45
2022/03/17 10:53:13;;;;;;;49.50;36.25;;;;;;;11.62;100.00;97203.28;5052008;28;20071;-46
2022/03/17 10:55:46;;;;;;;48.65;34.92;;;;;;;11.12;100.00;97203.19;5050393;28;20563;-47
2022/03/17 10:58:17;;;;;;;49.17;34.22;;;;;;;11.98;100.00;97197.63;5048443;28;20072;-46
2022/03/17 11:00:48;;;;;;;47.75;34.47;;;;;;;11.28;100.00;97207.16;5048758;28;20580;-51
2022/03/17 11:03:18;;;;;;;47.72;33.65;;;;;;;12.23;100.00;97212.97;5048461;28;20075;-45
2022/03/17 11:05:51;;;;;;;50.50;34.42;;;;;;;12.17;100.00;97212.66;5050032;28;20072;-48
2022/03/17 11:08:20;;;;;;;48.20;34.55;;;;;;;11.86;100.00;97207.44;5045968;28;20072;-52
2022/03/17 11:10:49;;;;;;;46.30;33.35;;;;;;;12.42;100.00;97213.97;5048935;28;20075;-51
2022/03/17 11:13:19;;;;;;;49.10;33.13;;;;;;;12.82;100.00;97216.50;5048291;28;20060;-46
2022/03/17 11:15:57;;;;;;;46.25;34.25;;;;;;;12.94;100.00;97220.69;5049270;28;20079;-46
2022/03/17 11:18:33;;;;;;;50.67;34.28;;;;;;;13.02;100.00;97214.66;5048029;28;20821;-45
2022/03/17 11:21:14;;;;;;;48.83;34.13;;;;;;;12.29;100.00;97219.53;5048321;28;20088;-47
2022/03/17 11:23:55;;;;;;;47.25;34.17;;;;;;;12.76;100.00;97209.94;5045520;28;20083;-45
2022/03/17 11:26:28;;;;;;;48.28;34.17;;;;;;;12.52;100.00;97220.09;5048473;28;20278;-51
2022/03/17 11:29:01;;;;;;;51.00;34.33;;;;;;;13.17;100.00;97217.72;5047643;28;20460;-50
2022/03/17 11:31:49;;;;;;;46.92;34.55;;;;;;;13.13;100.00;97211.88;5047669;28;20183;-48
2022/03/17 11:34:38;;;;;;;48.83;34.03;;;;;;;12.80;100.00;97219.28;5048594;28;20666;-45
2022/03/17 11:37:21;;;;;;;45.22;32.42;;;;;;;13.33;100.00;97209.22;5044075;28;20124;-50
2022/03/17 11:39:51;;;;;;;45.85;32.67;;;;;;;13.17;100.00;97213.25;5048369;28;20068;-49
2022/03/17 11:42:40;;;;;;;47.80;34.03;;;;;;;12.90;100.00;97218.44;5047950;28;20064;-48